Terminal Aerodrome Forecast
Issued by NWS Duluth, MN

Home | Current Version | Previous Version | Text Only | Print | Product List | Glossary On
Versions: 1 2 3 4 5 6 7 8 9 10 11 12 13 14 15 16 17 18 19 20 21 22 23 24 25 26 27 28 29 30 31 32
000
FTUS43 KDLH 242342
TAFINL
TAF
KINL 242342Z 2500/2524 28003KT P6SM VCTS FEW016 BKN029CB
     FM250300 30003KT P6SM SCT004 OVC008
     FM251400 35006KT P6SM BKN008 OVC015
     FM251800 35008KT P6SM -SHRA OVC015=

USA.gov is the U.S. government's official web portal to all federal, state and local government web resources and services.